Time;durP1;ratioP1;P1;durP2;ratioP2;P2;SDS_P1;SDS_P2;PMS_P1;PMS_P2;Temp;Humidity;BMP_temperature;BMP_pressure;BME280_temperature;BME280_humidity;BME280_pressure;Samples;Min_cycle;Max_cycle;Signal;HPM_P1;HPM_P2
2022/09/24 00:00:18;;;;;;;;;;;19.40;59.00;;;;;;5076822;28;19995;-69
2022/09/24 00:02:44;;;;;;;;;;;19.40;59.00;;;;;;5094582;28;20007;-69
2022/09/24 00:05:09;;;;;;;;;;;19.40;59.00;;;;;;5076562;28;19973;-69
2022/09/24 00:07:35;;;;;;;;;;;19.40;59.00;;;;;;5094522;28;19924;-68
2022/09/24 00:10:01;;;;;;;;;;;19.40;59.00;;;;;;5076936;28;19924;-69
2022/09/24 00:12:27;;;;;;;;;;;19.40;59.00;;;;;;5076552;28;20006;-68
2022/09/24 00:14:53;;;;;;;;;;;19.40;59.00;;;;;;5076186;28;20336;-68
2022/09/24 00:17:18;;;;;;;;;;;19.40;59.10;;;;;;5076174;28;20053;-69
2022/09/24 00:19:44;;;;;;;;;;;19.40;59.10;;;;;;5076116;28;19999;-69
2022/09/24 00:22:09;;;;;;;;;;;19.40;59.10;;;;;;5076270;28;19920;-68
2022/09/24 00:27:20;;;;;;;;;;;19.40;59.10;;;;;;5076273;28;19920;-68
2022/09/24 00:29:46;;;;;;;;;;;19.40;59.10;;;;;;5075896;28;19927;-68
2022/09/24 00:32:12;;;;;;;;;;;19.40;59.10;;;;;;5076283;28;20016;-68
2022/09/24 00:34:37;;;;;;;;;;;19.40;59.10;;;;;;5093897;28;19994;-68
2022/09/24 00:37:03;;;;;;;;;;;19.40;59.20;;;;;;5075983;28;19931;-69
2022/09/24 00:39:28;;;;;;;;;;;19.30;59.90;;;;;;5093923;28;19924;-68
2022/09/24 00:41:54;;;;;;;;;;;19.40;59.20;;;;;;5075748;28;19965;-69
2022/09/24 00:47:21;;;;;;;;;;;19.40;59.20;;;;;;5089929;28;19913;-68
2022/09/24 00:49:48;;;;;;;;;;;19.40;59.20;;;;;;5088549;28;20456;-69
2022/09/24 00:52:14;;;;;;;;;;;19.30;59.20;;;;;;5105541;28;20334;-68
2022/09/24 00:54:42;;;;;;;;;;;19.30;59.20;;;;;;5088805;28;20015;-69
2022/09/24 00:57:07;;;;;;;;;;;19.30;59.20;;;;;;5088443;28;19926;-68
2022/09/24 00:59:33;;;;;;;;;;;19.30;59.20;;;;;;5088720;28;20010;-69
2022/09/24 01:01:59;;;;;;;;;;;19.30;59.20;;;;;;5088390;28;19920;-68
2022/09/24 01:04:26;;;;;;;;;;;19.30;59.20;;;;;;5087943;28;19921;-69
2022/09/24 01:06:52;;;;;;;;;;;19.30;59.20;;;;;;5089363;28;19924;-69
2022/09/24 01:09:19;;;;;;;;;;;19.30;59.30;;;;;;5089528;28;19986;-68
2022/09/24 01:12:05;;;;;;;;;;;19.30;59.30;;;;;;5089361;28;19965;-68
2022/09/24 01:31:07;;;;;;;;;;;19.30;59.30;;;;;;5089838;28;19919;-69
2022/09/24 01:33:34;;;;;;;;;;;19.20;59.30;;;;;;5088646;28;19920;-69
2022/09/24 01:36:07;;;;;;;;;;;19.30;59.40;;;;;;5088522;28;19920;-68
2022/09/24 01:38:37;;;;;;;;;;;19.20;59.30;;;;;;5088929;28;20284;-68
2022/09/24 01:41:04;;;;;;;;;;;19.30;59.40;;;;;;5088323;28;19927;-68
2022/09/24 01:43:30;;;;;;;;;;;19.30;59.40;;;;;;5088747;28;20442;-68
2022/09/24 01:45:58;;;;;;;;;;;19.20;59.40;;;;;;5088620;28;19920;-69
2022/09/24 01:48:24;;;;;;;;;;;19.30;59.40;;;;;;5088621;28;19931;-68
2022/09/24 01:50:59;;;;;;;;;;;19.20;59.40;;;;;;5088165;28;19952;-68
2022/09/24 01:53:27;;;;;;;;;;;19.20;59.40;;;;;;5089490;28;20190;-68
2022/09/24 01:55:56;;;;;;;;;;;19.30;59.40;;;;;;5088461;28;19920;-68
2022/09/24 01:58:26;;;;;;;;;;;19.20;59.40;;;;;;5088069;28;19920;-68
2022/09/24 02:00:56;;;;;;;;;;;19.20;59.40;;;;;;5088450;28;19928;-68
2022/09/24 02:03:28;;;;;;;;;;;19.20;59.40;;;;;;5088420;28;19949;-68
2022/09/24 02:05:58;;;;;;;;;;;19.30;59.50;;;;;;5088349;28;19963;-68
2022/09/24 02:08:25;;;;;;;;;;;19.20;59.50;;;;;;5088379;28;19924;-69
2022/09/24 02:11:10;;;;;;;;;;;19.20;59.40;;;;;;5087670;28;19931;-68
2022/09/24 02:13:39;;;;;;;;;;;19.20;59.50;;;;;;5088081;28;20234;-68
2022/09/24 02:16:06;;;;;;;;;;;19.20;59.50;;;;;;5089115;28;19925;-68
2022/09/24 02:18:33;;;;;;;;;;;19.20;59.50;;;;;;5087906;28;19920;-68
2022/09/24 02:21:05;;;;;;;;;;;19.20;59.50;;;;;;5088919;28;19920;-68
2022/09/24 02:23:32;;;;;;;;;;;19.20;59.50;;;;;;5087470;28;19928;-68
2022/09/24 02:26:01;;;;;;;;;;;19.20;59.50;;;;;;5088838;28;19963;-69
2022/09/24 02:28:27;;;;;;;;;;;19.20;59.60;;;;;;5087478;28;19971;-68
2022/09/24 02:30:55;;;;;;;;;;;19.20;59.60;;;;;;5107888;28;19931;-68
2022/09/24 02:36:08;;;;;;;;;;;19.20;59.60;;;;;;5108889;28;19920;-68
2022/09/24 02:38:33;;;;;;;;;;;19.20;59.60;;;;;;5090933;28;19981;-68
2022/09/24 02:40:59;;;;;;;;;;;19.20;59.60;;;;;;5103027;28;19927;-68
2022/09/24 02:43:24;;;;;;;;;;;19.20;59.60;;;;;;5094351;28;19981;-69
2022/09/24 02:45:50;;;;;;;;;;;19.20;59.60;;;;;;5095221;28;20383;-68
2022/09/24 02:48:15;;;;;;;;;;;19.20;59.60;;;;;;5095156;28;19920;-69
2022/09/24 02:50:41;;;;;;;;;;;19.20;59.60;;;;;;5093717;28;19928;-68
2022/09/24 02:53:06;;;;;;;;;;;19.10;59.60;;;;;;5095252;28;19928;-68
2022/09/24 02:55:32;;;;;;;;;;;19.10;60.30;;;;;;5095024;28;19920;-68
2022/09/24 02:57:58;;;;;;;;;;;19.10;59.60;;;;;;5095060;28;19920;-69
2022/09/24 03:00:24;;;;;;;;;;;19.10;59.60;;;;;;5077021;28;19924;-68
2022/09/24 03:02:50;;;;;;;;;;;19.10;59.70;;;;;;5077088;28;20295;-68
2022/09/24 03:05:17;;;;;;;;;;;19.10;59.70;;;;;;5075880;28;19927;-68
2022/09/24 03:07:43;;;;;;;;;;;19.10;59.60;;;;;;5076828;28;19973;-68
2022/09/24 03:10:09;;;;;;;;;;;19.10;59.70;;;;;;5076537;28;19924;-68
2022/09/24 03:12:34;;;;;;;;;;;19.10;59.70;;;;;;5094888;28;19920;-69
2022/09/24 03:15:00;;;;;;;;;;;19.10;59.70;;;;;;5076499;28;19959;-68
2022/09/24 03:17:27;;;;;;;;;;;19.10;59.70;;;;;;5094662;28;19963;-68
2022/09/24 03:19:52;;;;;;;;;;;19.10;59.70;;;;;;5094548;28;20006;-68
2022/09/24 03:22:18;;;;;;;;;;;19.10;59.70;;;;;;5094758;28;20435;-70
2022/09/24 03:24:44;;;;;;;;;;;19.10;59.80;;;;;;5076452;28;20014;-68
2022/09/24 03:27:09;;;;;;;;;;;19.10;59.70;;;;;;5076549;28;20014;-69
2022/09/24 03:32:20;;;;;;;;;;;19.10;59.80;;;;;;5094119;28;19920;-68
2022/09/24 03:34:46;;;;;;;;;;;19.10;59.80;;;;;;5076392;28;20402;-68
2022/09/24 03:37:12;;;;;;;;;;;19.10;59.80;;;;;;5094306;28;19920;-68
2022/09/24 03:39:37;;;;;;;;;;;19.10;59.80;;;;;;5076279;28;20007;-69
2022/09/24 03:42:03;;;;;;;;;;;19.00;59.70;;;;;;5076067;28;20022;-68
2022/09/24 03:44:28;;;;;;;;;;;19.00;59.70;;;;;;5094136;28;20085;-68
2022/09/24 03:46:54;;;;;;;;;;;19.00;59.70;;;;;;5092767;28;19920;-68
2022/09/24 03:49:20;;;;;;;;;;;19.10;59.80;;;;;;5075810;28;19999;-68
2022/09/24 03:51:45;;;;;;;;;;;19.10;59.80;;;;;;5075624;28;20015;-68
2022/09/24 03:54:11;;;;;;;;;;;19.00;59.80;;;;;;5093172;28;19920;-68
2022/09/24 03:56:36;;;;;;;;;;;19.00;59.70;;;;;;5076115;28;20019;-68
2022/09/24 03:59:02;;;;;;;;;;;19.00;59.80;;;;;;5093900;28;20291;-68
2022/09/24 04:01:31;;;;;;;;;;;19.10;59.90;;;;;;5093795;28;20359;-68
2022/09/24 04:03:57;;;;;;;;;;;19.00;59.80;;;;;;5093722;28;19959;-68
2022/09/24 04:06:25;;;;;;;;;;;19.00;59.80;;;;;;5075935;28;20402;-68
2022/09/24 04:08:51;;;;;;;;;;;19.00;59.80;;;;;;5075470;28;19920;-68
2022/09/24 04:11:17;;;;;;;;;;;19.00;59.80;;;;;;5093584;28;19920;-69
2022/09/24 04:13:42;;;;;;;;;;;19.00;59.80;;;;;;5058794;28;19926;-68
2022/09/24 04:16:08;;;;;;;;;;;19.00;59.80;;;;;;5075402;28;19927;-68
2022/09/24 04:18:33;;;;;;;;;;;19.00;59.90;;;;;;5075258;28;20447;-68
2022/09/24 04:20:59;;;;;;;;;;;19.00;59.80;;;;;;5093391;28;19923;-68
2022/09/24 04:23:25;;;;;;;;;;;19.00;59.80;;;;;;5093342;28;19927;-68
2022/09/24 04:25:50;;;;;;;;;;;19.00;59.90;;;;;;5092362;28;20066;-69
2022/09/24 04:28:16;;;;;;;;;;;19.00;59.90;;;;;;5093338;28;19927;-69
2022/09/24 04:30:41;;;;;;;;;;;19.00;59.90;;;;;;5074827;28;20288;-68
2022/09/24 04:33:07;;;;;;;;;;;19.00;59.90;;;;;;5093242;28;19997;-68
2022/09/24 04:35:34;;;;;;;;;;;19.00;59.90;;;;;;5075182;28;19920;-68
2022/09/24 04:38:00;;;;;;;;;;;19.00;60.00;;;;;;5093027;28;19920;-68
2022/09/24 04:40:26;;;;;;;;;;;19.00;59.90;;;;;;5074864;28;20017;-68
2022/09/24 04:42:52;;;;;;;;;;;19.00;60.00;;;;;;5075114;28;19933;-68
2022/09/24 04:45:19;;;;;;;;;;;19.00;59.90;;;;;;5093141;28;20447;-69
2022/09/24 04:47:52;;;;;;;;;;;19.00;59.90;;;;;;5075037;28;19928;-68
2022/09/24 04:50:18;;;;;;;;;;;19.00;60.00;;;;;;5074756;28;20019;-69
2022/09/24 04:52:43;;;;;;;;;;;18.90;59.90;;;;;;5093063;28;19974;-68
2022/09/24 04:55:09;;;;;;;;;;;19.00;60.00;;;;;;5075111;28;20363;-68
2022/09/24 04:57:35;;;;;;;;;;;19.00;60.00;;;;;;5092860;28;20395;-68
2022/09/24 05:00:04;;;;;;;;;;;19.00;60.00;;;;;;5074950;28;19967;-68
2022/09/24 05:02:30;;;;;;;;;;;19.00;60.00;;;;;;5092746;28;20212;-68
2022/09/24 05:04:55;;;;;;;;;;;19.00;60.00;;;;;;5074628;28;20023;-68
2022/09/24 05:07:21;;;;;;;;;;;19.00;60.00;;;;;;5074539;28;19920;-68
2022/09/24 05:09:46;;;;;;;;;;;19.00;60.00;;;;;;5074616;28;19978;-68
2022/09/24 05:12:13;;;;;;;;;;;18.90;60.00;;;;;;5074494;28;19926;-69
2022/09/24 05:14:38;;;;;;;;;;;18.90;60.00;;;;;;5092434;28;20387;-68
2022/09/24 05:17:04;;;;;;;;;;;19.00;60.00;;;;;;5074762;28;19924;-69
2022/09/24 05:19:29;;;;;;;;;;;19.00;60.00;;;;;;5074257;28;19935;-69
2022/09/24 05:21:55;;;;;;;;;;;18.90;60.00;;;;;;5092752;28;19920;-68
2022/09/24 05:24:21;;;;;;;;;;;18.90;60.00;;;;;;5074521;28;20256;-68
2022/09/24 05:27:19;;;;;;;;;;;18.90;60.00;;;;;;5074382;28;20011;-68
2022/09/24 05:29:31;;;;;;;;;;;18.90;60.00;;;;;;5091877;28;19932;-68
2022/09/24 05:31:59;;;;;;;;;;;18.90;60.00;;;;;;5092359;28;19973;-68
2022/09/24 05:34:24;;;;;;;;;;;18.90;60.00;;;;;;5092173;28;19927;-68
2022/09/24 05:36:50;;;;;;;;;;;18.90;60.80;;;;;;5074251;28;19920;-68
2022/09/24 05:39:15;;;;;;;;;;;18.90;60.00;;;;;;5091346;28;20102;-68
2022/09/24 05:41:42;;;;;;;;;;;18.90;60.10;;;;;;5092483;28;20481;-69
2022/09/24 05:44:08;;;;;;;;;;;18.90;60.00;;;;;;5074505;28;20253;-68
2022/09/24 05:46:35;;;;;;;;;;;18.90;60.10;;;;;;5074416;28;19924;-68
2022/09/24 05:49:00;;;;;;;;;;;18.90;60.10;;;;;;5074221;28;19950;-69
2022/09/24 05:51:26;;;;;;;;;;;18.90;60.10;;;;;;5091296;28;19920;-68
2022/09/24 05:53:51;;;;;;;;;;;18.90;60.10;;;;;;5092427;28;20319;-69
2022/09/24 05:56:17;;;;;;;;;;;18.90;60.10;;;;;;5091367;28;19920;-68
2022/09/24 05:58:42;;;;;;;;;;;18.90;60.10;;;;;;5074269;28;20334;-68
2022/09/24 06:01:08;;;;;;;;;;;18.90;60.10;;;;;;5092095;28;20398;-68
2022/09/24 06:03:34;;;;;;;;;;;18.90;60.10;;;;;;5092045;28;19924;-68
2022/09/24 06:06:00;;;;;;;;;;;18.90;60.10;;;;;;5073952;28;19993;-68
2022/09/24 06:08:27;;;;;;;;;;;18.90;60.10;;;;;;5073832;28;20371;-68
2022/09/24 06:10:57;;;;;;;;;;;18.90;60.10;;;;;;5091955;28;19931;-69
2022/09/24 06:13:22;;;;;;;;;;;18.90;60.10;;;;;;5091989;28;19920;-68
2022/09/24 06:15:48;;;;;;;;;;;18.90;60.20;;;;;;5092865;28;20275;-68
2022/09/24 06:18:13;;;;;;;;;;;18.90;60.20;;;;;;5095808;28;19931;-68
2022/09/24 06:20:39;;;;;;;;;;;18.90;60.10;;;;;;5095571;28;19978;-68
2022/09/24 06:23:05;;;;;;;;;;;18.90;60.20;;;;;;5077482;28;20003;-69
2022/09/24 06:25:30;;;;;;;;;;;18.90;60.20;;;;;;5077384;28;19920;-68
2022/09/24 06:27:59;;;;;;;;;;;18.90;60.20;;;;;;5094641;28;19973;-68
2022/09/24 06:30:26;;;;;;;;;;;18.90;60.20;;;;;;5095090;28;19924;-68
2022/09/24 06:32:52;;;;;;;;;;;18.90;60.20;;;;;;5077326;28;20011;-68
2022/09/24 06:35:18;;;;;;;;;;;18.90;60.20;;;;;;5095333;28;19920;-69
2022/09/24 06:37:44;;;;;;;;;;;18.80;60.10;;;;;;5077260;28;19928;-68
2022/09/24 06:40:09;;;;;;;;;;;18.90;60.20;;;;;;5095382;28;19973;-69
2022/09/24 06:42:35;;;;;;;;;;;18.90;60.30;;;;;;5077420;28;19971;-68
2022/09/24 06:45:00;;;;;;;;;;;18.80;60.20;;;;;;5077610;28;19920;-68
2022/09/24 06:47:26;;;;;;;;;;;18.80;60.20;;;;;;5095137;28;19926;-68
2022/09/24 06:49:51;;;;;;;;;;;18.90;60.20;;;;;;5076889;28;19924;-68
2022/09/24 06:52:17;;;;;;;;;;;18.90;60.20;;;;;;5095461;28;19920;-68
2022/09/24 06:54:42;;;;;;;;;;;18.90;60.30;;;;;;5077104;28;19943;-68
2022/09/24 06:57:08;;;;;;;;;;;18.90;60.30;;;;;;5094991;28;19942;-70
2022/09/24 06:59:33;;;;;;;;;;;18.80;60.20;;;;;;5095020;28;19924;-70
2022/09/24 07:01:59;;;;;;;;;;;18.90;60.20;;;;;;5094966;28;19920;-70
2022/09/24 07:04:24;;;;;;;;;;;18.90;60.30;;;;;;5076116;28;19924;-70
2022/09/24 07:09:36;;;;;;;;;;;18.80;60.20;;;;;;5094611;28;19924;-70
2022/09/24 07:12:04;;;;;;;;;;;18.90;60.30;;;;;;5076982;28;20002;-69
2022/09/24 07:14:29;;;;;;;;;;;18.80;60.30;;;;;;5076819;28;19920;-70
2022/09/24 07:16:55;;;;;;;;;;;18.80;60.30;;;;;;5077070;28;19985;-70
2022/09/24 07:19:20;;;;;;;;;;;18.80;60.30;;;;;;5094594;28;19999;-71
2022/09/24 07:21:46;;;;;;;;;;;18.80;60.20;;;;;;5094890;28;19920;-72
2022/09/24 07:24:11;;;;;;;;;;;18.90;60.30;;;;;;5076562;28;20041;-71
2022/09/24 07:26:37;;;;;;;;;;;18.80;60.30;;;;;;5076548;28;19920;-71
2022/09/24 07:29:03;;;;;;;;;;;18.80;60.30;;;;;;5094175;28;20026;-70
2022/09/24 07:31:28;;;;;;;;;;;18.80;60.30;;;;;;5076537;28;20368;-70
2022/09/24 07:33:54;;;;;;;;;;;18.80;60.30;;;;;;5094304;28;19931;-70
2022/09/24 07:36:19;;;;;;;;;;;18.80;60.30;;;;;;5093467;28;20575;-70
2022/09/24 07:38:45;;;;;;;;;;;18.80;60.30;;;;;;5076616;28;19943;-70
2022/09/24 07:41:10;;;;;;;;;;;18.80;60.30;;;;;;5076506;28;19920;-69
2022/09/24 07:43:37;;;;;;;;;;;18.80;60.30;;;;;;5076101;28;19920;-69
2022/09/24 07:46:03;;;;;;;;;;;18.80;60.30;;;;;;5076067;28;20421;-69
2022/09/24 07:48:28;;;;;;;;;;;18.80;60.30;;;;;;5094039;28;19920;-69
2022/09/24 07:50:54;;;;;;;;;;;18.80;60.70;;;;;;5093895;28;19932;-70
2022/09/24 07:53:20;;;;;;;;;;;18.80;60.90;;;;;;5076153;28;19920;-71
2022/09/24 07:55:46;;;;;;;;;;;18.80;61.10;;;;;;5093938;28;19920;-71
2022/09/24 07:58:12;;;;;;;;;;;18.90;61.00;;;;;;5075982;28;19920;-69
2022/09/24 08:00:38;;;;;;;;;;;18.90;61.40;;;;;;5092279;28;20429;-72
2022/09/24 08:03:04;;;;;;;;;;;18.90;61.20;;;;;;5074601;28;19971;-71
2022/09/24 08:05:30;;;;;;;;;;;18.90;61.20;;;;;;5092516;28;20306;-71
2022/09/24 08:07:56;;;;;;;;;;;19.00;61.40;;;;;;5074668;28;19920;-71
2022/09/24 08:10:22;;;;;;;;;;;19.00;61.70;;;;;;5092644;28;19924;-75
2022/09/24 08:12:48;;;;;;;;;;;19.00;61.70;;;;;;5074991;28;19924;-70
2022/09/24 08:15:14;;;;;;;;;;;19.10;61.80;;;;;;5093063;28;20388;-72
2022/09/24 08:17:40;;;;;;;;;;;19.10;61.80;;;;;;5074946;28;19920;-71
2022/09/24 08:20:06;;;;;;;;;;;19.10;61.70;;;;;;5093346;28;19920;-71
2022/09/24 08:22:31;;;;;;;;;;;19.10;61.90;;;;;;5093007;28;19974;-71
2022/09/24 08:24:57;;;;;;;;;;;19.20;61.90;;;;;;5092692;28;19920;-71
2022/09/24 08:27:24;;;;;;;;;;;19.20;61.90;;;;;;5075065;28;19920;-72
2022/09/24 08:29:50;;;;;;;;;;;19.20;62.00;;;;;;5074386;28;20010;-72
2022/09/24 08:32:16;;;;;;;;;;;19.20;62.00;;;;;;5092731;28;20288;-71
2022/09/24 08:34:42;;;;;;;;;;;19.20;62.20;;;;;;5092845;28;19967;-72
2022/09/24 08:37:08;;;;;;;;;;;19.30;62.20;;;;;;5074832;28;19943;-72
2022/09/24 08:39:34;;;;;;;;;;;19.30;62.20;;;;;;5074719;28;20399;-74
2022/09/24 08:42:01;;;;;;;;;;;19.30;62.20;;;;;;5093084;28;19927;-72
2022/09/24 08:47:34;;;;;;;;;;;19.30;62.20;;;;;;5092827;28;19927;-71
2022/09/24 08:50:16;;;;;;;;;;;19.30;62.30;;;;;;5092576;28;19950;-71
2022/09/24 08:55:28;;;;;;;;;;;19.40;62.20;;;;;;5109574;27;19938;-69
2022/09/24 09:06:35;;;;;;;;;;;19.40;61.90;;;;;;5089400;28;20265;-67
2022/09/24 09:09:18;;;;;;;;;;;19.30;61.90;;;;;;5088407;28;19920;-67
2022/09/24 09:11:46;;;;;;;;;;;19.40;62.10;;;;;;5088619;28;19984;-67
2022/09/24 09:16:56;;;;;;;;;;;19.50;62.20;;;;;;5089098;28;19913;-67
2022/09/24 09:19:24;;;;;;;;;;;19.50;62.10;;;;;;5088949;28;20015;-67
2022/09/24 09:21:54;;;;;;;;;;;19.50;62.10;;;;;;5088496;28;19924;-67
2022/09/24 09:24:24;;;;;;;;;;;19.50;62.10;;;;;;5088759;28;19920;-67
2022/09/24 09:26:53;;;;;;;;;;;19.50;62.00;;;;;;5088219;28;19966;-66
2022/09/24 09:29:19;;;;;;;;;;;19.50;62.10;;;;;;5087622;28;19927;-68
2022/09/24 09:34:32;;;;;;;;;;;19.50;62.00;;;;;;5088990;28;19913;-68
2022/09/24 09:37:18;;;;;;;;;;;19.50;62.20;;;;;;5105572;28;19966;-66
2022/09/24 09:48:02;;;;;;;;;;;19.50;61.90;;;;;;5089892;28;19913;-66
2022/09/24 09:50:47;;;;;;;;;;;19.40;61.90;;;;;;5088511;28;19921;-66
2022/09/24 09:53:21;;;;;;;;;;;19.40;61.90;;;;;;5089668;28;20015;-66
2022/09/24 09:55:52;;;;;;;;;;;19.30;61.90;;;;;;5088555;28;19931;-66
2022/09/24 09:58:21;;;;;;;;;;;19.30;61.90;;;;;;5088381;28;20376;-66
2022/09/24 10:00:48;;;;;;;;;;;19.30;61.80;;;;;;5088650;28;19963;-66
2022/09/24 10:03:30;;;;;;;;;;;19.30;61.90;;;;;;5088566;28;19968;-66
2022/09/24 10:05:57;;;;;;;;;;;19.30;61.90;;;;;;5089562;28;19960;-66
2022/09/24 10:08:23;;;;;;;;;;;19.30;61.90;;;;;;5089528;28;19925;-66
2022/09/24 10:10:54;;;;;;;;;;;19.20;61.80;;;;;;5088531;28;19973;-66
2022/09/24 10:13:19;;;;;;;;;;;19.20;61.80;;;;;;5089494;28;19968;-66
2022/09/24 10:15:49;;;;;;;;;;;19.20;61.80;;;;;;5088321;28;19920;-67
2022/09/24 10:18:16;;;;;;;;;;;19.20;61.90;;;;;;5089513;28;19921;-66
2022/09/24 10:20:45;;;;;;;;;;;19.20;61.90;;;;;;5088078;28;20394;-66
2022/09/24 10:23:15;;;;;;;;;;;19.20;61.80;;;;;;5087933;28;19973;-66
2022/09/24 10:25:49;;;;;;;;;;;19.20;61.80;;;;;;5087874;28;19920;-66
2022/09/24 10:31:04;;;;;;;;;;;19.20;61.80;;;;;;5088907;28;20338;-66
2022/09/24 10:33:46;;;;;;;;;;;19.20;61.70;;;;;;5087715;28;19924;-66
2022/09/24 10:36:13;;;;;;;;;;;19.20;61.70;;;;;;5088048;28;19921;-66
2022/09/24 10:38:39;;;;;;;;;;;19.20;61.70;;;;;;5088868;28;19920;-66
2022/09/24 10:41:16;;;;;;;;;;;19.20;61.70;;;;;;5088882;28;19925;-66
2022/09/24 10:43:49;;;;;;;;;;;19.20;61.70;;;;;;5088988;28;20433;-66
2022/09/24 10:46:21;;;;;;;;;;;19.20;61.60;;;;;;5094497;28;19930;-66
2022/09/24 10:48:53;;;;;;;;;;;19.20;61.60;;;;;;5109068;28;19927;-66
2022/09/24 10:56:42;;;;;;;;;;;19.20;61.50;;;;;;5110364;27;19912;-66
2022/09/24 11:01:52;;;;;;;;;;;19.10;61.40;;;;;;5089786;28;19919;-66
2022/09/24 11:04:21;;;;;;;;;;;19.10;61.40;;;;;;5088526;28;19924;-66
2022/09/24 11:06:56;;;;;;;;;;;19.10;61.40;;;;;;5088842;28;19920;-66
2022/09/24 11:09:29;;;;;;;;;;;19.10;61.50;;;;;;5088399;28;20390;-67
2022/09/24 11:12:01;;;;;;;;;;;19.10;61.40;;;;;;5087753;28;20402;-67
2022/09/24 11:19:57;;;;;;;;;;;19.10;61.40;;;;;;5089936;28;20268;-66
2022/09/24 11:25:23;;;;;;;;;;;19.10;61.40;;;;;;5089791;28;19918;-66
2022/09/24 11:27:55;;;;;;;;;;;19.10;61.40;;;;;;5088733;28;20372;-66
2022/09/24 11:30:23;;;;;;;;;;;19.00;61.40;;;;;;5089723;28;20019;-66
2022/09/24 11:38:16;;;;;;;;;;;19.10;61.40;;;;;;5089949;28;19912;-66
2022/09/24 11:40:51;;;;;;;;;;;19.10;61.40;;;;;;5088784;28;19974;-66
2022/09/24 11:51:48;;;;;;;;;;;19.00;61.40;;;;;;5090055;28;19912;-66
2022/09/24 11:54:22;;;;;;;;;;;19.00;61.40;;;;;;5088645;28;19924;-66
2022/09/24 11:56:49;;;;;;;;;;;19.10;61.40;;;;;;5088746;28;19925;-66
2022/09/24 12:02:00;;;;;;;;;;;19.00;61.30;;;;;;5110159;27;19922;-66
2022/09/24 12:04:31;;;;;;;;;;;19.10;61.40;;;;;;5108966;28;19973;-66
2022/09/24 12:07:02;;;;;;;;;;;19.10;61.30;;;;;;5110118;28;20399;-66
2022/09/24 12:12:14;;;;;;;;;;;19.00;61.30;;;;;;5089886;28;19913;-66
2022/09/24 12:14:44;;;;;;;;;;;19.00;61.20;;;;;;5088851;28;19929;-66
2022/09/24 12:17:16;;;;;;;;;;;19.10;61.30;;;;;;5089024;28;19955;-66
2022/09/24 12:19:48;;;;;;;;;;;19.10;61.30;;;;;;5088515;28;20447;-66
2022/09/24 12:22:15;;;;;;;;;;;19.10;61.20;;;;;;5088419;28;19959;-66
2022/09/24 12:24:43;;;;;;;;;;;19.10;61.20;;;;;;5088414;28;19970;-66
2022/09/24 12:27:11;;;;;;;;;;;19.10;61.20;;;;;;5088274;28;20364;-66
2022/09/24 12:32:54;;;;;;;;;;;19.10;61.10;;;;;;5089700;27;19913;-66
2022/09/24 12:35:28;;;;;;;;;;;19.10;61.10;;;;;;5088461;28;19927;-66
2022/09/24 12:37:59;;;;;;;;;;;19.10;61.10;;;;;;5088494;28;19927;-66
2022/09/24 12:40:44;;;;;;;;;;;19.10;61.10;;;;;;5088471;28;19928;-66
2022/09/24 12:43:30;;;;;;;;;;;19.10;61.10;;;;;;5105549;28;19974;-66
2022/09/24 12:45:58;;;;;;;;;;;19.10;61.00;;;;;;5088146;28;19927;-66
2022/09/24 12:48:24;;;;;;;;;;;19.10;61.00;;;;;;5088256;28;19925;-66
2022/09/24 12:50:58;;;;;;;;;;;19.10;61.00;;;;;;5089486;28;19924;-66
2022/09/24 12:53:28;;;;;;;;;;;19.10;61.00;;;;;;5089448;28;19921;-66
2022/09/24 12:55:57;;;;;;;;;;;19.10;60.90;;;;;;5088221;28;19927;-66
2022/09/24 12:58:27;;;;;;;;;;;19.10;60.90;;;;;;5088411;28;19927;-66
2022/09/24 13:01:03;;;;;;;;;;;19.10;60.90;;;;;;5071229;28;20365;-66
2022/09/24 13:06:28;;;;;;;;;;;19.10;60.90;;;;;;5089736;28;19919;-66
2022/09/24 13:08:54;;;;;;;;;;;19.10;60.90;;;;;;5089505;28;20413;-66
2022/09/24 13:16:52;;;;;;;;;;;19.10;61.10;;;;;;5109678;27;19924;-66
2022/09/24 13:19:24;;;;;;;;;;;19.10;61.70;;;;;;5097913;28;19969;-66
2022/09/24 13:21:58;;;;;;;;;;;19.10;61.70;;;;;;5106315;28;20008;-66
2022/09/24 13:24:27;;;;;;;;;;;19.10;61.70;;;;;;5108766;28;20283;-66
2022/09/24 13:26:52;;;;;;;;;;;19.10;61.70;;;;;;5092037;28;20022;-65
2022/09/24 13:29:22;;;;;;;;;;;19.10;61.70;;;;;;5109035;28;20015;-66
2022/09/24 13:31:51;;;;;;;;;;;19.10;61.70;;;;;;5094175;28;19947;-66
2022/09/24 13:34:20;;;;;;;;;;;19.10;61.70;;;;;;5122648;28;19921;-66
2022/09/24 13:37:03;;;;;;;;;;;19.10;61.70;;;;;;5122668;28;20023;-66
2022/09/24 13:42:28;;;;;;;;;;;19.00;61.50;;;;;;5110333;27;19912;-65
2022/09/24 13:44:55;;;;;;;;;;;19.10;61.60;;;;;;5108659;28;19955;-66
2022/09/24 13:50:06;;;;;;;;;;;19.00;61.50;;;;;;5089785;28;19913;-65
2022/09/24 13:52:34;;;;;;;;;;;19.10;61.50;;;;;;5089105;28;19920;-65
2022/09/24 13:55:14;;;;;;;;;;;19.10;61.50;;;;;;5105735;28;19974;-66
2022/09/24 13:57:42;;;;;;;;;;;19.00;61.50;;;;;;5088851;28;19920;-66
2022/09/24 14:05:35;;;;;;;;;;;19.00;61.50;;;;;;5110290;27;19938;-66
2022/09/24 14:08:03;;;;;;;;;;;19.00;61.40;;;;;;5108978;28;19973;-66
2022/09/24 14:10:29;;;;;;;;;;;19.10;61.50;;;;;;5109169;28;19963;-66
2022/09/24 14:13:09;;;;;;;;;;;19.00;61.40;;;;;;5108793;28;19920;-66
2022/09/24 14:15:35;;;;;;;;;;;19.00;61.40;;;;;;5109099;28;19920;-65
2022/09/24 14:18:00;;;;;;;;;;;19.00;61.40;;;;;;5108873;28;20011;-66
2022/09/24 14:20:27;;;;;;;;;;;19.00;61.40;;;;;;5108774;28;20030;-65
2022/09/24 14:22:53;;;;;;;;;;;19.00;61.40;;;;;;5108641;28;19973;-65
2022/09/24 14:25:26;;;;;;;;;;;19.00;61.40;;;;;;5108526;28;19924;-65
2022/09/24 14:27:51;;;;;;;;;;;19.00;61.40;;;;;;5108823;28;19924;-66
2022/09/24 14:30:19;;;;;;;;;;;19.00;61.40;;;;;;5109752;28;20006;-65
2022/09/24 14:32:49;;;;;;;;;;;19.00;61.50;;;;;;5108715;28;19927;-65
2022/09/24 14:35:17;;;;;;;;;;;18.90;61.40;;;;;;5108484;28;20002;-66
2022/09/24 14:37:48;;;;;;;;;;;19.00;61.50;;;;;;5109548;28;19924;-65
2022/09/24 14:40:15;;;;;;;;;;;19.00;61.50;;;;;;5108270;28;19926;-66
2022/09/24 14:42:48;;;;;;;;;;;18.90;61.40;;;;;;5108558;28;19920;-66
2022/09/24 14:45:18;;;;;;;;;;;18.90;61.50;;;;;;5108214;28;20007;-66
2022/09/24 14:47:43;;;;;;;;;;;18.90;61.50;;;;;;5109492;28;19920;-66
2022/09/24 14:50:28;;;;;;;;;;;18.90;61.60;;;;;;5109368;28;20379;-65
2022/09/24 14:52:55;;;;;;;;;;;18.90;61.60;;;;;;5142195;27;19920;-66
2022/09/24 14:55:34;;;;;;;;;;;18.90;61.60;;;;;;5109338;28;19924;-66
2022/09/24 14:57:59;;;;;;;;;;;18.90;61.70;;;;;;5109204;28;20405;-66
2022/09/24 15:00:26;;;;;;;;;;;18.90;61.60;;;;;;5109132;28;20010;-65
2022/09/24 15:03:00;;;;;;;;;;;18.90;61.70;;;;;;5109085;28;19920;-66
2022/09/24 15:05:26;;;;;;;;;;;18.90;61.60;;;;;;5107590;28;19924;-66
2022/09/24 15:08:05;;;;;;;;;;;18.90;61.70;;;;;;5109005;28;19963;-66
2022/09/24 15:10:30;;;;;;;;;;;18.90;61.60;;;;;;5109128;28;20367;-66
2022/09/24 15:12:56;;;;;;;;;;;18.90;61.60;;;;;;5108968;28;19927;-66
2022/09/24 15:15:27;;;;;;;;;;;18.80;61.60;;;;;;5137138;27;19982;-66
2022/09/24 15:17:53;;;;;;;;;;;18.80;61.70;;;;;;5094034;28;19984;-65
2022/09/24 15:20:18;;;;;;;;;;;18.80;61.70;;;;;;5093244;28;20379;-66
2022/09/24 15:22:45;;;;;;;;;;;18.80;61.60;;;;;;5094046;28;19978;-66
2022/09/24 15:25:13;;;;;;;;;;;18.80;61.70;;;;;;5095282;28;20387;-65
2022/09/24 15:27:41;;;;;;;;;;;18.80;61.80;;;;;;5093760;28;20143;-66
2022/09/24 15:30:09;;;;;;;;;;;18.80;61.80;;;;;;5095065;28;19955;-65
2022/09/24 15:32:35;;;;;;;;;;;18.80;61.80;;;;;;5094075;28;19977;-65
2022/09/24 15:35:06;;;;;;;;;;;18.70;61.70;;;;;;5093862;28;20074;-65
2022/09/24 15:37:31;;;;;;;;;;;18.80;61.80;;;;;;5093695;28;19965;-65
2022/09/24 15:39:58;;;;;;;;;;;18.80;61.80;;;;;;5093503;28;19928;-65
2022/09/24 15:42:24;;;;;;;;;;;18.80;61.80;;;;;;5095007;28;20260;-66
2022/09/24 15:44:51;;;;;;;;;;;18.70;61.80;;;;;;5093507;28;19947;-65
2022/09/24 15:47:17;;;;;;;;;;;18.70;61.80;;;;;;5093842;28;19923;-66
2022/09/24 15:49:43;;;;;;;;;;;18.70;61.80;;;;;;5093649;28;20298;-66
2022/09/24 15:52:25;;;;;;;;;;;18.70;61.80;;;;;;5093467;28;20003;-65
2022/09/24 15:54:51;;;;;;;;;;;18.70;61.80;;;;;;5094586;28;20337;-65
2022/09/24 15:57:17;;;;;;;;;;;18.70;61.80;;;;;;5094615;28;20367;-65
2022/09/24 15:59:42;;;;;;;;;;;18.70;61.80;;;;;;5094462;28;19938;-66
2022/09/24 16:02:15;;;;;;;;;;;18.70;61.80;;;;;;5093137;28;19919;-65
2022/09/24 16:04:40;;;;;;;;;;;18.70;61.90;;;;;;5092778;28;19931;-65
2022/09/24 16:07:06;;;;;;;;;;;18.70;61.90;;;;;;5093065;28;19920;-65
2022/09/24 16:09:31;;;;;;;;;;;18.70;61.90;;;;;;5093277;28;19920;-65
2022/09/24 16:11:57;;;;;;;;;;;18.70;61.90;;;;;;5127501;27;20321;-65
2022/09/24 16:14:22;;;;;;;;;;;18.70;61.90;;;;;;5094196;28;19924;-66
2022/09/24 16:16:48;;;;;;;;;;;18.70;61.90;;;;;;5094062;28;20327;-65
2022/09/24 16:19:13;;;;;;;;;;;18.70;61.90;;;;;;5093172;28;19950;-66